createdAt,value
2016-05-20T00:00:08.610Z,18.19
2016-05-20T00:01:08.520Z,18.15
2016-05-20T00:02:08.694Z,18.11
2016-05-20T00:03:08.587Z,18.15
2016-05-20T00:04:08.653Z,18.13
2016-05-20T00:05:08.873Z,18.15
2016-05-20T00:06:08.939Z,18.2
2016-05-20T00:07:08.957Z,18.08
2016-05-20T00:08:09.023Z,18.08
2016-05-20T00:09:08.931Z,18.13
2016-05-20T00:10:09.106Z,18.19
2016-05-20T00:11:09.156Z,18.11
2016-05-20T00:12:09.236Z,18.11
2016-05-20T00:13:09.270Z,18.15
2016-05-20T00:14:09.288Z,18.15
2016-05-20T00:15:09.386Z,18.13
2016-05-20T00:16:09.419Z,18.16
2016-05-20T00:17:09.469Z,18.16
2016-05-20T00:18:09.519Z,18.13
2016-05-20T00:19:09.396Z,18.19
2016-05-20T00:20:09.633Z,18.15
2016-05-20T00:21:09.667Z,18.07
2016-05-20T00:22:09.716Z,18.16
2016-05-20T00:23:09.797Z,18.1
2016-05-20T00:24:09.925Z,18.16
2016-05-20T00:25:09.865Z,18.18
2016-05-20T00:26:09.930Z,18.15
2016-05-20T00:27:09.995Z,18.15
2016-05-20T00:28:10.029Z,18.11
2016-05-20T00:29:10.079Z,18.11
2016-05-20T00:30:10.160Z,18.19
2016-05-20T00:31:10.179Z,18.2
2016-05-20T00:32:10.228Z,18.15
2016-05-20T00:33:10.137Z,18.19
2016-05-20T00:34:10.312Z,18.15
2016-05-20T00:35:10.377Z,18.15
2016-05-20T00:36:10.442Z,18.16
2016-05-20T00:37:10.476Z,18.15
2016-05-20T00:38:10.369Z,18.13
2016-05-20T00:39:11.262Z,18.13
2016-05-20T00:40:10.625Z,18.2
2016-05-20T00:41:10.673Z,18.11
2016-05-20T00:42:10.598Z,18.16
2016-05-20T00:43:10.772Z,18.18
2016-05-20T00:44:10.697Z,18.11
2016-05-20T00:45:10.889Z,18.11
2016-05-20T00:46:10.937Z,18.13
2016-05-20T00:47:10.830Z,18.13
2016-05-20T00:48:10.896Z,18.04
2016-05-20T00:49:11.086Z,18.13
2016-05-20T00:50:11.152Z,18.1
2016-05-20T00:51:11.200Z,18.18
2016-05-20T00:52:11.219Z,18.15
2016-05-20T00:53:11.128Z,18.07
2016-05-20T00:54:11.255Z,18.18
2016-05-20T00:55:11.227Z,18.18
2016-05-20T00:56:11.464Z,18.19
2016-05-20T00:57:11.482Z,18.08
2016-05-20T00:58:11.407Z,18.04
2016-05-20T00:59:11.613Z,18.11
2016-05-20T01:00:11.632Z,18.15
2016-05-20T01:01:11.696Z,18.15
2016-05-20T01:02:11.746Z,18.13
2016-05-20T01:03:11.796Z,18.11
2016-05-20T01:04:11.674Z,18.19
2016-05-20T01:05:11.926Z,18.11
2016-05-20T01:06:11.945Z,18.2
2016-05-20T01:07:11.993Z,18.13
2016-05-20T01:08:12.168Z,18.15
2016-05-20T01:09:11.812Z,18.1
2016-05-20T01:10:12.173Z,18.15
2016-05-20T01:11:12.301Z,18.18
2016-05-20T01:12:12.319Z,18.08
2016-05-20T01:13:12.322Z,18.1
2016-05-20T01:14:12.373Z,18.18
2016-05-20T01:15:12.233Z,18.1
2016-05-20T01:16:12.299Z,18.15
2016-05-20T01:17:12.333Z,18.11
2016-05-20T01:18:12.539Z,18.04
2016-05-20T01:19:12.620Z,18.08
2016-05-20T01:20:12.653Z,18.13
2016-05-20T01:21:12.719Z,18.15
2016-05-20T01:22:12.752Z,18.03
2016-05-20T01:23:12.786Z,18.15
2016-05-20T01:24:12.758Z,18.04
2016-05-20T01:25:12.760Z,18.05
2016-05-20T01:26:12.951Z,18.07
2016-05-20T01:27:13.032Z,18.07
2016-05-20T01:28:13.082Z,18.1
2016-05-20T01:29:13.116Z,18.07
2016-05-20T01:30:13.024Z,18.1
2016-05-20T01:31:13.262Z,18.11
2016-05-20T01:32:13.249Z,18.04
2016-05-20T01:33:13.157Z,18.07
2016-05-20T01:34:13.348Z,18.01
2016-05-20T01:35:13.429Z,18.07
2016-05-20T01:36:13.462Z,18.07
2016-05-20T01:37:13.512Z,18.18
2016-05-20T01:38:13.577Z,18.04
2016-05-20T01:39:14.470Z,18.1
2016-05-20T01:40:13.661Z,18.08
2016-05-20T01:41:13.725Z,18.08
2016-05-20T01:42:13.635Z,18.04
2016-05-20T01:43:13.826Z,18.07
2016-05-20T01:44:13.717Z,18.07
2016-05-20T01:45:13.940Z,18.07
2016-05-20T01:46:13.958Z,18.08
2016-05-20T01:47:14.023Z,18.07
2016-05-20T01:48:13.901Z,18.08
2016-05-20T01:49:14.138Z,18.1
2016-05-20T01:50:14.188Z,18.04
2016-05-20T01:51:14.049Z,18.05
2016-05-20T01:52:14.114Z,18.04
2016-05-20T01:53:14.352Z,18.03
2016-05-20T01:54:14.369Z,18.03
2016-05-20T01:55:14.419Z,18
2016-05-20T01:56:14.485Z,18.07
2016-05-20T01:57:14.363Z,18.07
2016-05-20T01:58:14.568Z,18.01
2016-05-20T01:59:14.665Z,18.05
2016-05-20T02:00:14.668Z,18.05
2016-05-20T02:01:14.733Z,18.04
2016-05-20T02:02:14.782Z,18.05
2016-05-20T02:03:14.816Z,18.03
2016-05-20T02:04:14.896Z,18.05
2016-05-20T02:05:14.931Z,18.05
2016-05-20T02:06:14.981Z,18.03
2016-05-20T02:07:15.045Z,18.01
2016-05-20T02:08:15.095Z,18.07
2016-05-20T02:09:15.176Z,18.05
2016-05-20T02:10:15.195Z,18.04
2016-05-20T02:11:15.245Z,18.05
2016-05-20T02:12:15.263Z,18.01
2016-05-20T02:13:15.203Z,18.01
2016-05-20T02:14:15.253Z,18.03
2016-05-20T02:15:15.270Z,18.01
2016-05-20T02:16:15.491Z,18
2016-05-20T02:17:15.557Z,17.97
2016-05-20T02:18:15.591Z,17.98
2016-05-20T02:19:15.641Z,18.01
2016-05-20T02:20:15.706Z,18.03
2016-05-20T02:21:15.724Z,17.98
2016-05-20T02:22:15.774Z,18.01
2016-05-20T02:23:15.854Z,18.05
2016-05-20T02:24:15.733Z,18.05
2016-05-20T02:25:15.938Z,17.98
2016-05-20T02:26:15.988Z,18.05
2016-05-20T02:27:16.038Z,18.01
2016-05-20T02:28:16.086Z,18.03
2016-05-20T02:29:16.136Z,18
2016-05-20T02:30:16.201Z,17.95
2016-05-20T02:31:16.219Z,17.98
2016-05-20T02:32:16.285Z,18.01
2016-05-20T02:33:16.349Z,17.98
2016-05-20T02:34:16.368Z,17.95
2016-05-20T02:35:16.433Z,17.97
2016-05-20T02:36:16.498Z,17.94
2016-05-20T02:37:16.360Z,17.97
2016-05-20T02:38:16.442Z,17.94
2016-05-20T02:39:17.023Z,17.97
2016-05-20T02:40:16.744Z,17.95
2016-05-20T02:41:16.653Z,17.94
2016-05-20T02:42:16.734Z,18.01
2016-05-20T02:43:16.893Z,17.92
2016-05-20T02:44:16.739Z,17.98
2016-05-20T02:45:16.929Z,17.98
2016-05-20T02:46:16.838Z,17.97
2016-05-20T02:47:16.887Z,17.89
2016-05-20T02:48:17.094Z,17.89
2016-05-20T02:49:17.128Z,17.95
2016-05-20T02:50:17.224Z,17.87
2016-05-20T02:51:17.086Z,17.87
2016-05-20T02:52:17.308Z,17.92
2016-05-20T02:53:17.342Z,17.86
2016-05-20T02:54:17.328Z,17.97
2016-05-20T02:55:17.456Z,17.94
2016-05-20T02:56:17.506Z,17.92
2016-05-20T02:57:17.383Z,17.87
2016-05-20T02:58:17.605Z,17.89
2016-05-20T02:59:17.654Z,17.92
2016-05-20T03:00:17.672Z,17.87
2016-05-20T03:01:17.738Z,17.87
2016-05-20T03:02:17.803Z,17.83
2016-05-20T03:03:17.681Z,17.89
2016-05-20T03:04:17.901Z,17.8
2016-05-20T03:05:17.968Z,17.85
2016-05-20T03:06:17.829Z,17.87
2016-05-20T03:07:18.035Z,17.85
2016-05-20T03:08:17.944Z,17.87
2016-05-20T03:09:18.165Z,17.89
2016-05-20T03:10:18.199Z,17.83
2016-05-20T03:11:18.265Z,17.85
2016-05-20T03:12:18.314Z,17.83
2016-05-20T03:13:18.348Z,17.86
2016-05-20T03:14:18.288Z,17.86
2016-05-20T03:15:18.462Z,17.87
2016-05-20T03:16:18.498Z,17.85
2016-05-20T03:17:18.406Z,17.8
2016-05-20T03:18:18.595Z,17.74
2016-05-20T03:19:18.521Z,17.82
2016-05-20T03:20:18.711Z,17.85
2016-05-20T03:21:18.744Z,17.82
2016-05-20T03:22:18.810Z,17.86
2016-05-20T03:23:18.875Z,17.78
2016-05-20T03:24:18.830Z,17.82
2016-05-20T03:25:18.943Z,17.82
2016-05-20T03:26:18.853Z,17.74
2016-05-20T03:27:19.041Z,17.76
2016-05-20T03:28:19.091Z,17.83
2016-05-20T03:29:19.172Z,17.78
2016-05-20T03:30:19.222Z,17.86
2016-05-20T03:31:19.274Z,17.78
2016-05-20T03:32:19.293Z,17.83
2016-05-20T03:33:19.357Z,17.83
2016-05-20T03:34:19.423Z,17.8
2016-05-20T03:35:19.473Z,17.8
2016-05-20T03:36:19.506Z,17.74
2016-05-20T03:37:19.571Z,17.83
2016-05-20T03:38:19.606Z,17.82
2016-05-20T03:39:19.340Z,17.76
2016-05-20T03:40:19.421Z,17.76
2016-05-20T03:41:19.770Z,17.82
2016-05-20T03:42:19.835Z,17.82
2016-05-20T03:43:19.854Z,17.79
2016-05-20T03:44:19.918Z,17.8
2016-05-20T03:45:20.000Z,17.87
2016-05-20T03:46:20.002Z,17.85
2016-05-20T03:47:20.051Z,17.86
2016-05-20T03:48:20.132Z,17.82
2016-05-20T03:49:20.150Z,17.83
2016-05-20T03:50:20.200Z,17.78
2016-05-20T03:51:20.281Z,17.82
2016-05-20T03:52:20.331Z,17.82
2016-05-20T03:53:20.365Z,17.76
2016-05-20T03:54:20.945Z,17.83
2016-05-20T03:55:20.480Z,17.86
2016-05-20T03:56:20.514Z,17.8
2016-05-20T03:57:20.563Z,17.82
2016-05-20T03:58:20.488Z,17.83
2016-05-20T03:59:20.662Z,17.86
2016-05-20T04:00:20.727Z,17.82
2016-05-20T04:01:20.793Z,17.85
2016-05-20T04:02:20.811Z,17.82
2016-05-20T04:03:20.860Z,17.74
2016-05-20T04:04:20.629Z,17.87
2016-05-20T04:05:20.991Z,17.76
2016-05-20T04:06:21.025Z,17.8
2016-05-20T04:07:20.934Z,17.76
2016-05-20T04:08:20.967Z,17.8
2016-05-20T04:09:21.205Z,17.76
2016-05-20T04:10:21.067Z,17.76
2016-05-20T04:11:21.257Z,17.76
2016-05-20T04:12:21.337Z,17.79
2016-05-20T04:13:21.371Z,17.71
2016-05-20T04:14:21.421Z,17.79
2016-05-20T04:15:21.502Z,17.72
2016-05-20T04:16:21.380Z,17.79
2016-05-20T04:17:21.414Z,17.76
2016-05-20T04:18:21.651Z,17.78
2016-05-20T04:19:21.529Z,17.72
2016-05-20T04:20:21.734Z,17.76
2016-05-20T04:21:21.612Z,17.78
2016-05-20T04:22:21.833Z,17.85
2016-05-20T04:23:21.898Z,17.78
2016-05-20T04:24:22.339Z,17.82
2016-05-20T04:25:21.966Z,17.8
2016-05-20T04:26:21.891Z,17.83
2016-05-20T04:27:22.096Z,17.79
2016-05-20T04:28:22.130Z,17.78
2016-05-20T04:29:22.197Z,17.78
2016-05-20T04:30:22.089Z,17.79
2016-05-20T04:31:22.280Z,17.76
2016-05-20T04:32:22.329Z,17.8
2016-05-20T04:33:22.379Z,17.8
2016-05-20T04:34:22.444Z,17.78
2016-05-20T04:35:22.509Z,17.86
2016-05-20T04:36:22.527Z,17.85
2016-05-20T04:37:22.592Z,17.76
2016-05-20T04:38:22.643Z,17.87
2016-05-20T04:39:22.677Z,17.85
2016-05-20T04:40:22.726Z,17.82
2016-05-20T04:41:22.791Z,17.82
2016-05-20T04:42:22.840Z,17.83
2016-05-20T04:43:22.734Z,17.85
2016-05-20T04:44:22.955Z,17.74
2016-05-20T04:45:23.036Z,17.79
2016-05-20T04:46:23.054Z,17.83
2016-05-20T04:47:23.087Z,17.82
2016-05-20T04:48:23.137Z,17.83
2016-05-20T04:49:23.203Z,17.82
2016-05-20T04:50:23.236Z,17.83
2016-05-20T04:51:23.287Z,17.76
2016-05-20T04:52:23.336Z,17.7
2016-05-20T04:53:23.386Z,17.85
2016-05-20T04:54:23.279Z,17.76
2016-05-20T04:55:23.500Z,17.72
2016-05-20T04:56:23.549Z,17.8
2016-05-20T04:57:23.427Z,17.83
2016-05-20T04:58:23.664Z,17.82
2016-05-20T04:59:23.683Z,17.85
2016-05-20T05:00:23.763Z,17.82
2016-05-20T05:01:23.798Z,17.76
2016-05-20T05:02:23.846Z,17.83
2016-05-20T05:03:23.912Z,17.78
2016-05-20T05:04:23.963Z,17.76
2016-05-20T05:05:23.840Z,17.78
2016-05-20T05:06:24.061Z,17.76
2016-05-20T05:07:24.110Z,17.71
2016-05-20T05:08:24.129Z,17.78
2016-05-20T05:09:24.304Z,17.79
2016-05-20T05:10:24.259Z,17.72
2016-05-20T05:11:24.277Z,17.76
2016-05-20T05:12:24.358Z,17.8
2016-05-20T05:13:24.392Z,17.74
2016-05-20T05:14:24.457Z,17.78
2016-05-20T05:15:24.523Z,17.76
2016-05-20T05:16:24.385Z,17.78
2016-05-20T05:17:24.606Z,17.76
2016-05-20T05:18:24.656Z,17.78
2016-05-20T05:19:24.690Z,17.79
2016-05-20T05:20:24.584Z,17.78
2016-05-20T05:21:24.820Z,17.76
2016-05-20T05:22:24.681Z,17.82
2016-05-20T05:23:24.889Z,17.78
2016-05-20T05:24:25.359Z,17.76
2016-05-20T05:25:25.018Z,17.78
2016-05-20T05:26:25.067Z,17.74
2016-05-20T05:27:25.102Z,17.78
2016-05-20T05:28:25.167Z,17.74
2016-05-20T05:29:25.217Z,17.76
2016-05-20T05:30:25.250Z,17.74
2016-05-20T05:31:25.160Z,17.82
2016-05-20T05:32:25.397Z,17.79
2016-05-20T05:33:25.400Z,17.78
2016-05-20T05:34:25.449Z,17.76
2016-05-20T05:35:25.514Z,17.74
2016-05-20T05:36:25.579Z,17.71
2016-05-20T05:37:25.613Z,17.72
2016-05-20T05:38:25.679Z,17.86
2016-05-20T05:39:26.415Z,17.79
2016-05-20T05:40:25.747Z,17.74
2016-05-20T05:41:25.812Z,17.82
2016-05-20T05:42:25.892Z,17.74
2016-05-20T05:43:25.911Z,17.76
2016-05-20T05:44:25.944Z,17.78
2016-05-20T05:45:26.041Z,17.79
2016-05-20T05:46:26.043Z,17.8
2016-05-20T05:47:26.093Z,17.74
2016-05-20T05:48:26.189Z,17.82
2016-05-20T05:49:26.240Z,17.85
2016-05-20T05:50:26.289Z,17.85
2016-05-20T05:51:26.307Z,17.83
2016-05-20T05:52:26.216Z,17.74
2016-05-20T05:53:26.437Z,17.74
2016-05-20T05:54:26.425Z,17.82
2016-05-20T05:55:26.349Z,17.86
2016-05-20T05:56:26.415Z,17.87
2016-05-20T05:57:26.448Z,17.79
2016-05-20T05:58:26.667Z,17.72
2016-05-20T05:59:26.777Z,17.82
2016-05-20T06:00:26.871Z,17.85
2016-05-20T06:01:26.794Z,17.86
2016-05-20T06:02:27.091Z,17.8
2016-05-20T06:03:27.144Z,17.8
2016-05-20T06:04:27.070Z,17.79
2016-05-20T06:05:27.276Z,17.8
2016-05-20T06:06:27.342Z,17.82
2016-05-20T06:07:27.424Z,17.82
2016-05-20T06:08:27.471Z,17.74
2016-05-20T06:09:27.604Z,17.82
2016-05-20T06:10:27.612Z,17.78
2016-05-20T06:11:27.496Z,17.8
2016-05-20T06:12:27.535Z,17.76
2016-05-20T06:13:27.776Z,17.82
2016-05-20T06:14:27.672Z,17.76
2016-05-20T06:15:27.864Z,17.72
2016-05-20T06:16:27.931Z,17.74
2016-05-20T06:17:27.967Z,17.76
2016-05-20T06:18:27.863Z,17.78
2016-05-20T06:19:28.084Z,17.83
2016-05-20T06:20:28.104Z,17.85
2016-05-20T06:21:28.169Z,17.85
2016-05-20T06:22:28.236Z,17.83
2016-05-20T06:23:28.099Z,17.8
2016-05-20T06:24:28.569Z,17.83
2016-05-20T06:25:28.245Z,17.8
2016-05-20T06:26:28.264Z,17.87
2016-05-20T06:27:28.314Z,17.79
2016-05-20T06:28:28.551Z,17.78
2016-05-20T06:29:28.569Z,17.82
2016-05-20T06:30:28.634Z,17.82
2016-05-20T06:31:28.669Z,17.79
2016-05-20T06:32:28.562Z,17.83
2016-05-20T06:33:28.783Z,17.87
2016-05-20T06:34:28.833Z,17.74
2016-05-20T06:35:28.867Z,17.74
2016-05-20T06:36:28.948Z,17.82
2016-05-20T06:37:28.825Z,17.82
2016-05-20T06:38:28.875Z,17.72
2016-05-20T06:39:29.097Z,17.83
2016-05-20T06:40:29.349Z,17.83
2016-05-20T06:41:29.195Z,17.72
2016-05-20T06:42:29.214Z,17.78
2016-05-20T06:43:29.279Z,17.78
2016-05-20T06:44:29.344Z,17.83
2016-05-20T06:45:29.221Z,17.79
2016-05-20T06:46:29.271Z,17.85
2016-05-20T06:47:29.493Z,17.83
2016-05-20T06:48:29.542Z,17.85
2016-05-20T06:49:29.420Z,17.8
2016-05-20T06:50:29.657Z,17.85
2016-05-20T06:51:29.551Z,17.85
2016-05-20T06:52:29.725Z,17.85
2016-05-20T06:53:29.806Z,17.85
2016-05-20T06:54:30.074Z,17.8
2016-05-20T06:55:29.905Z,17.89
2016-05-20T06:56:29.939Z,17.8
2016-05-20T06:57:30.004Z,17.85
2016-05-20T06:58:30.054Z,17.82
2016-05-20T06:59:30.103Z,17.85
2016-05-20T07:00:30.137Z,17.74
2016-05-20T07:01:30.203Z,17.79
2016-05-20T07:02:30.111Z,17.83
2016-05-20T07:03:30.130Z,17.85
2016-05-20T07:04:30.350Z,17.74
2016-05-20T07:05:30.400Z,17.82
2016-05-20T07:06:30.278Z,17.74
2016-05-20T07:07:30.344Z,17.72
2016-05-20T07:08:30.393Z,17.76
2016-05-20T07:09:30.442Z,17.82
2016-05-20T07:10:30.945Z,17.71
2016-05-20T07:11:30.683Z,17.74
2016-05-20T07:12:30.732Z,17.78
2016-05-20T07:13:30.813Z,17.76
2016-05-20T07:14:30.847Z,17.79
2016-05-20T07:15:30.881Z,17.76
2016-05-20T07:16:30.977Z,17.76
2016-05-20T07:17:30.996Z,17.68
2016-05-20T07:18:31.030Z,17.78
2016-05-20T07:19:31.110Z,17.74
2016-05-20T07:20:31.159Z,17.8
2016-05-20T07:21:31.037Z,17.82
2016-05-20T07:22:31.274Z,17.82
2016-05-20T07:23:31.309Z,17.78
2016-05-20T07:24:31.264Z,17.74
2016-05-20T07:25:31.282Z,17.78
2016-05-20T07:26:31.457Z,17.74
2016-05-20T07:27:31.507Z,17.82
2016-05-20T07:28:31.556Z,17.8
2016-05-20T07:29:31.637Z,17.87
2016-05-20T07:30:31.484Z,17.78
2016-05-20T07:31:31.690Z,17.76
2016-05-20T07:32:31.754Z,17.86
2016-05-20T07:33:31.804Z,17.79
2016-05-20T07:34:31.714Z,17.74
2016-05-20T07:35:31.887Z,17.78
2016-05-20T07:36:31.936Z,17.74
2016-05-20T07:37:32.017Z,17.79
2016-05-20T07:38:31.895Z,17.7
2016-05-20T07:39:32.227Z,17.8
2016-05-20T07:40:32.119Z,17.78
2016-05-20T07:41:32.216Z,17.79
2016-05-20T07:42:32.250Z,17.78
2016-05-20T07:43:32.331Z,17.79
2016-05-20T07:44:32.365Z,17.82
2016-05-20T07:45:32.399Z,17.78
2016-05-20T07:46:32.292Z,17.82
2016-05-20T07:47:32.498Z,17.78
2016-05-20T07:48:32.579Z,17.76
2016-05-20T07:49:32.613Z,17.82
2016-05-20T07:50:32.663Z,17.78
2016-05-20T07:51:32.728Z,17.83
2016-05-20T07:52:32.776Z,17.7
2016-05-20T07:53:32.795Z,17.74
2016-05-20T07:54:32.876Z,17.74
2016-05-20T07:55:32.879Z,17.76
2016-05-20T07:56:32.943Z,17.76
2016-05-20T07:57:32.853Z,17.82
2016-05-20T07:58:33.059Z,17.78
2016-05-20T07:59:37.312Z,17.74
2016-05-20T08:00:33.204Z,17.79
2016-05-20T08:01:33.192Z,17.7
2016-05-20T08:02:42.023Z,17.72
2016-05-20T08:03:33.337Z,17.78
2016-05-20T08:04:33.372Z,17.71
2016-05-20T08:05:33.281Z,17.78
2016-05-20T08:06:33.486Z,17.79
2016-05-20T08:07:41.817Z,17.85
2016-05-20T08:08:33.414Z,17.78
2016-05-20T08:09:33.917Z,17.79
2016-05-20T08:10:34.356Z,17.76
2016-05-20T08:11:33.750Z,17.8
2016-05-20T08:12:33.753Z,17.74
2016-05-20T08:13:33.536Z,17.74
2016-05-20T08:14:33.727Z,17.8
2016-05-20T08:15:33.902Z,17.76
2016-05-20T08:16:33.952Z,17.8
2016-05-20T08:17:48.579Z,17.76
2016-05-20T08:18:33.910Z,17.74
2016-05-20T08:19:34.115Z,17.82
2016-05-20T08:20:37.790Z,17.7
2016-05-20T08:21:36.965Z,17.83
2016-05-20T08:22:38.545Z,17.79
2016-05-20T08:23:34.985Z,17.85
2016-05-20T08:24:34.379Z,17.72
2016-05-20T08:25:37.007Z,17.72
2016-05-20T08:26:35.040Z,17.76
2016-05-20T08:27:34.371Z,17.85
2016-05-20T08:28:34.592Z,17.74
2016-05-20T08:29:34.626Z,17.76
2016-05-20T08:30:35.176Z,17.71
2016-05-20T08:31:34.756Z,17.86
2016-05-20T08:32:34.776Z,17.79
2016-05-20T08:33:34.809Z,17.74
2016-05-20T08:34:37.578Z,17.78
2016-05-20T08:35:34.877Z,17.79
2016-05-20T08:36:38.473Z,17.72
2016-05-20T08:37:35.039Z,17.76
2016-05-20T08:38:35.056Z,17.76
2016-05-20T08:39:35.138Z,17.82
2016-05-20T08:40:35.203Z,17.78
2016-05-20T08:41:36.222Z,17.78
2016-05-20T08:42:35.287Z,17.78
2016-05-20T08:43:35.336Z,17.85
2016-05-20T08:44:35.369Z,17.72
2016-05-20T08:45:35.435Z,17.79
2016-05-20T08:46:35.500Z,17.76
2016-05-20T08:47:35.535Z,17.82
2016-05-20T08:48:35.584Z,17.7
2016-05-20T08:49:35.649Z,17.82
2016-05-20T08:50:35.699Z,17.79
2016-05-20T08:51:35.749Z,17.78
2016-05-20T08:52:35.766Z,17.78
2016-05-20T08:53:35.832Z,17.74
2016-05-20T08:54:36.115Z,17.78
2016-05-20T08:55:35.932Z,17.78
2016-05-20T08:56:35.980Z,17.78
2016-05-20T08:57:36.045Z,17.76
2016-05-20T08:58:36.080Z,17.82
2016-05-20T08:59:36.129Z,17.74
2016-05-20T09:00:36.195Z,17.8
2016-05-20T09:01:36.228Z,17.72
2016-05-20T09:02:36.278Z,17.87
2016-05-20T09:03:36.343Z,17.79
2016-05-20T09:04:36.424Z,17.8
2016-05-20T09:05:36.426Z,17.85
2016-05-20T09:06:36.506Z,17.85
2016-05-20T09:07:36.401Z,17.85
2016-05-20T09:08:36.606Z,17.83
2016-05-20T09:09:36.656Z,17.79
2016-05-20T09:10:36.800Z,17.85
2016-05-20T09:11:36.739Z,17.8
2016-05-20T09:12:36.789Z,17.79
2016-05-20T09:13:36.855Z,17.83
2016-05-20T09:14:36.888Z,17.83
2016-05-20T09:15:36.953Z,17.83
2016-05-20T09:16:36.816Z,17.72
2016-05-20T09:17:37.037Z,17.82
2016-05-20T09:18:37.103Z,17.79
2016-05-20T09:19:37.136Z,17.85
2016-05-20T09:20:37.186Z,17.79
2016-05-20T09:21:37.251Z,17.85
2016-05-20T09:22:37.129Z,17.74
2016-05-20T09:23:37.116Z,17.85
2016-05-20T09:24:37.274Z,17.74
2016-05-20T09:25:37.590Z,17.72
2016-05-20T09:26:37.482Z,17.78
2016-05-20T09:27:37.424Z,17.82
2016-05-20T09:28:37.582Z,17.82
2016-05-20T09:29:37.648Z,17.78
2016-05-20T09:30:37.697Z,17.82
2016-05-20T09:31:37.731Z,17.82
2016-05-20T09:32:37.671Z,17.76
2016-05-20T09:33:37.862Z,17.85
2016-05-20T09:34:37.739Z,17.86
2016-05-20T09:35:37.664Z,17.76
2016-05-20T09:36:38.025Z,17.83
2016-05-20T09:37:38.044Z,17.74
2016-05-20T09:38:38.125Z,17.79
2016-05-20T09:39:38.924Z,17.82
2016-05-20T09:40:38.223Z,17.83
2016-05-20T09:41:38.242Z,17.8
2016-05-20T09:42:38.151Z,17.85
2016-05-20T09:43:38.795Z,17.78
2016-05-20T09:44:38.406Z,17.85
2016-05-20T09:45:38.284Z,17.85
2016-05-20T09:46:38.380Z,17.83
2016-05-20T09:47:38.555Z,17.78
2016-05-20T09:48:39.777Z,17.82
2016-05-20T09:49:38.670Z,17.78
2016-05-20T09:50:38.563Z,17.76
2016-05-20T09:51:38.597Z,17.82
2016-05-20T09:52:38.803Z,17.76
2016-05-20T09:53:38.712Z,17.82
2016-05-20T09:54:38.902Z,17.78
2016-05-20T09:55:38.857Z,17.85
2016-05-20T09:56:39.002Z,17.78
2016-05-20T09:57:39.051Z,17.71
2016-05-20T09:58:39.115Z,17.78
2016-05-20T09:59:38.978Z,17.8
2016-05-20T10:00:39.199Z,17.79
2016-05-20T10:01:39.265Z,17.85
2016-05-20T10:02:39.158Z,17.87
2016-05-20T10:03:40.957Z,17.78
2016-05-20T10:04:39.429Z,17.85
2016-05-20T10:05:39.463Z,17.8
2016-05-20T10:06:39.529Z,17.8
2016-05-20T10:07:39.546Z,17.85
2016-05-20T10:08:40.034Z,17.71
2016-05-20T10:09:39.520Z,17.78
2016-05-20T10:10:39.554Z,17.86
2016-05-20T10:11:39.448Z,17.83
2016-05-20T10:12:39.825Z,17.85
2016-05-20T10:13:40.719Z,17.87
2016-05-20T10:14:39.894Z,17.78
2016-05-20T10:15:39.974Z,17.74
2016-05-20T10:16:40.008Z,17.85
2016-05-20T10:17:40.042Z,17.82
2016-05-20T10:18:41.357Z,17.79
2016-05-20T10:19:40.157Z,17.83
2016-05-20T10:20:40.253Z,17.78
2016-05-20T10:21:40.099Z,17.8
2016-05-20T10:22:40.149Z,17.76
2016-05-20T10:23:41.308Z,17.8
2016-05-20T10:24:40.467Z,17.79
2016-05-20T10:25:40.501Z,17.87
2016-05-20T10:26:40.535Z,17.85
2016-05-20T10:27:40.584Z,17.82
2016-05-20T10:28:40.618Z,17.8
2016-05-20T10:29:40.684Z,17.78
2016-05-20T10:30:40.608Z,17.78
2016-05-20T10:31:40.673Z,17.74
2016-05-20T10:32:40.832Z,17.8
2016-05-20T10:33:40.804Z,17.79
2016-05-20T10:34:40.932Z,17.83
2016-05-20T10:35:40.700Z,17.79
2016-05-20T10:36:41.015Z,17.78
2016-05-20T10:37:41.081Z,17.82
2016-05-20T10:38:41.083Z,17.78
2016-05-20T10:39:41.148Z,17.8
2016-05-20T10:40:41.260Z,17.8
2016-05-20T10:41:41.309Z,17.78
2016-05-20T10:42:41.345Z,17.72
2016-05-20T10:43:43.861Z,17.79
2016-05-20T10:44:41.443Z,17.79
2016-05-20T10:45:41.509Z,17.8
2016-05-20T10:46:41.511Z,17.79
2016-05-20T10:47:41.592Z,17.74
2016-05-20T10:48:42.314Z,17.83
2016-05-20T10:49:41.675Z,17.8
2016-05-20T10:50:41.740Z,17.83
2016-05-20T10:51:41.822Z,17.79
2016-05-20T10:52:41.746Z,17.76
2016-05-20T10:53:43.967Z,17.85
2016-05-20T10:54:42.329Z,17.8
2016-05-20T10:55:42.379Z,17.74
2016-05-20T10:56:42.132Z,17.82
2016-05-20T10:57:42.088Z,17.83
2016-05-20T10:58:44.481Z,17.78
2016-05-20T10:59:42.185Z,17.78
2016-05-20T11:00:42.220Z,17.78
2016-05-20T11:01:42.270Z,17.8
2016-05-20T11:02:42.351Z,17.87
2016-05-20T11:03:44.213Z,17.82
2016-05-20T11:04:42.418Z,17.83
2016-05-20T11:05:42.343Z,17.74
2016-05-20T11:06:42.518Z,17.87
2016-05-20T11:07:42.567Z,17.76
2016-05-20T11:08:43.789Z,17.78
2016-05-20T11:09:42.698Z,17.85
2016-05-20T11:10:42.748Z,17.83
2016-05-20T11:11:42.688Z,17.89
2016-05-20T11:12:42.815Z,17.83
2016-05-20T11:13:44.067Z,17.89
2016-05-20T11:14:42.930Z,17.86
2016-05-20T11:15:42.979Z,17.89
2016-05-20T11:16:43.061Z,17.86
2016-05-20T11:17:43.094Z,17.86
2016-05-20T11:18:43.128Z,17.87
2016-05-20T11:19:43.053Z,17.86
2016-05-20T11:20:43.258Z,17.86
2016-05-20T11:21:43.292Z,17.82
2016-05-20T11:22:43.091Z,17.86
2016-05-20T11:23:43.579Z,17.89
2016-05-20T11:24:43.144Z,17.83
2016-05-20T11:25:43.335Z,17.86
2016-05-20T11:26:43.540Z,17.89
2016-05-20T11:27:43.636Z,17.86
2016-05-20T11:28:43.655Z,17.87
2016-05-20T11:29:43.689Z,17.83
2016-05-20T11:30:43.614Z,17.85
2016-05-20T11:31:43.804Z,17.87
2016-05-20T11:32:43.838Z,17.87
2016-05-20T11:33:43.902Z,17.86
2016-05-20T11:34:43.812Z,17.85
2016-05-20T11:35:43.987Z,17.82
2016-05-20T11:36:44.067Z,17.85
2016-05-20T11:37:44.085Z,17.85
2016-05-20T11:38:44.150Z,17.82
2016-05-20T11:39:44.215Z,17.9
2016-05-20T11:40:44.078Z,17.85
2016-05-20T11:41:44.299Z,17.9
2016-05-20T11:42:44.364Z,17.87
2016-05-20T11:43:44.399Z,17.89
2016-05-20T11:44:44.448Z,17.85
2016-05-20T11:45:44.356Z,17.87
2016-05-20T11:46:44.547Z,17.83
2016-05-20T11:47:44.581Z,17.87
2016-05-20T11:48:44.506Z,17.87
2016-05-20T11:49:44.711Z,17.85
2016-05-20T11:50:44.621Z,17.86
2016-05-20T11:51:44.794Z,17.83
2016-05-20T11:52:44.860Z,17.83
2016-05-20T11:53:44.785Z,17.85
2016-05-20T11:54:44.959Z,17.83
2016-05-20T11:55:44.853Z,17.87
2016-05-20T11:56:44.902Z,17.95
2016-05-20T11:57:45.108Z,17.92
2016-05-20T11:58:45.142Z,17.89
2016-05-20T11:59:45.301Z,17.9
2016-05-20T12:00:45.257Z,17.87
2016-05-20T12:01:45.338Z,17.87
2016-05-20T12:02:45.355Z,17.86
2016-05-20T12:03:45.405Z,17.92
2016-05-20T12:04:45.471Z,17.97
2016-05-20T12:05:45.504Z,17.87
2016-05-20T12:06:45.538Z,17.92
2016-05-20T12:07:45.634Z,17.95
2016-05-20T12:08:45.669Z,17.9
2016-05-20T12:09:45.546Z,17.97
2016-05-20T12:10:45.924Z,17.92
2016-05-20T12:11:45.849Z,17.92
2016-05-20T12:12:45.712Z,18
2016-05-20T12:13:46.229Z,17.95
2016-05-20T12:14:45.966Z,17.92
2016-05-20T12:15:46.031Z,17.95
2016-05-20T12:16:45.925Z,17.94
2016-05-20T12:17:46.100Z,17.98
2016-05-20T12:18:46.164Z,17.9
2016-05-20T12:19:46.230Z,17.94
2016-05-20T12:20:46.278Z,17.92
2016-05-20T12:21:46.313Z,17.94
2016-05-20T12:22:46.222Z,17.95
2016-05-20T12:23:46.397Z,17.94
2016-05-20T12:24:46.290Z,17.95
2016-05-20T12:25:46.527Z,17.95
2016-05-20T12:26:46.577Z,17.89
2016-05-20T12:27:46.611Z,18
2016-05-20T12:28:46.675Z,17.98
2016-05-20T12:29:46.710Z,17.95
2016-05-20T12:30:46.760Z,17.89
2016-05-20T12:31:46.840Z,17.94
2016-05-20T12:32:46.874Z,18.01
2016-05-20T12:33:46.752Z,18
2016-05-20T12:34:46.989Z,17.9
2016-05-20T12:35:47.038Z,17.94
2016-05-20T12:36:47.072Z,17.97
2016-05-20T12:37:47.137Z,17.94
2016-05-20T12:38:47.032Z,17.95
2016-05-20T12:39:47.221Z,17.97
2016-05-20T12:40:47.145Z,17.94
2016-05-20T12:41:47.321Z,17.9
2016-05-20T12:42:47.370Z,17.98
2016-05-20T12:43:47.451Z,18.03
2016-05-20T12:44:47.468Z,17.94
2016-05-20T12:45:47.378Z,17.98
2016-05-20T12:46:47.583Z,17.95
2016-05-20T12:47:48.914Z,17.95
2016-05-20T12:48:47.511Z,17.95
2016-05-20T12:49:47.748Z,18.03
2016-05-20T12:50:47.782Z,17.94
2016-05-20T12:51:47.831Z,17.95
2016-05-20T12:52:48.365Z,17.97
2016-05-20T12:53:47.775Z,17.98
2016-05-20T12:54:47.840Z,17.9
2016-05-20T12:55:47.872Z,17.94